Time;durP1;ratioP1;P1;durP2;ratioP2;P2;SDS_P1;SDS_P2;PMS_P1;PMS_P2;Temp;Humidity;BMP_temperature;BMP_pressure;BME280_temperature;BME280_humidity;BME280_pressure;Samples;Min_cycle;Max_cycle;Signal;HPM_P1;HPM_P2
2023/05/13 00:01:27;;;;;;;4.20;3.43;;;16.50;99.90;;;;;;5012084;28;20032;-83
2023/05/13 00:03:53;;;;;;;5.45;3.42;;;16.50;99.90;;;;;;5039837;28;20028;-83
2023/05/13 00:06:19;;;;;;;4.72;3.83;;;16.40;99.90;;;;;;5028025;28;20162;-84
2023/05/13 00:08:45;;;;;;;4.40;3.47;;;16.30;99.90;;;;;;5015385;28;20029;-84
2023/05/13 00:11:10;;;;;;;4.38;3.50;;;16.30;99.90;;;;;;5000447;28;20029;-86
2023/05/13 00:13:36;;;;;;;4.65;3.50;;;16.20;99.90;;;;;;5031428;28;20033;-83
2023/05/13 00:16:03;;;;;;;4.07;3.40;;;16.10;99.90;;;;;;5031259;28;20104;-86
2023/05/13 00:18:28;;;;;;;4.55;3.28;;;16.00;99.90;;;;;;5005330;28;20029;-82
2023/05/13 00:20:55;;;;;;;5.05;3.85;;;16.00;99.90;;;;;;5023025;28;20028;-85
2023/05/13 00:23:21;;;;;;;4.80;4.00;;;15.90;99.90;;;;;;5017787;28;20037;-82
2023/05/13 00:25:47;;;;;;;6.07;4.63;;;15.90;99.90;;;;;;5006758;28;20051;-84
2023/05/13 00:28:13;;;;;;;6.35;4.68;;;15.90;99.90;;;;;;5036452;28;20029;-85
2023/05/13 00:30:44;;;;;;;6.45;5.25;;;15.80;99.90;;;;;;5030588;28;20024;-86
2023/05/13 00:33:10;;;;;;;6.37;4.87;;;15.80;99.90;;;;;;5004906;28;20042;-87
2023/05/13 00:35:36;;;;;;;6.78;5.10;;;15.80;99.90;;;;;;5031548;28;20104;-84
2023/05/13 00:38:02;;;;;;;7.30;5.65;;;15.80;99.90;;;;;;5019985;28;20680;-86
2023/05/13 00:40:28;;;;;;;8.35;6.13;;;15.80;99.90;;;;;;5014520;28;20256;-84
2023/05/13 00:42:54;;;;;;;7.17;6.03;;;15.80;99.90;;;;;;5020526;28;20055;-84
2023/05/13 00:45:20;;;;;;;8.95;6.53;;;15.80;99.90;;;;;;5027213;28;20477;-84
2023/05/13 00:47:47;;;;;;;8.90;6.80;;;15.90;99.90;;;;;;5026058;28;20953;-84
2023/05/13 00:50:13;;;;;;;8.25;6.45;;;15.90;99.90;;;;;;4999454;28;20617;-83
2023/05/13 00:52:41;;;;;;;8.53;6.53;;;15.90;99.90;;;;;;5043613;28;20041;-85
2023/05/13 00:55:08;;;;;;;10.05;7.13;;;15.90;99.90;;;;;;5039617;28;20029;-87
2023/05/13 00:57:36;;;;;;;9.35;7.05;;;15.90;99.90;;;;;;5026242;28;20540;-85
2023/05/13 01:00:07;;;;;;;9.07;6.80;;;16.00;99.90;;;;;;5023550;28;20028;-87
2023/05/13 01:02:36;;;;;;;9.02;6.88;;;16.00;99.90;;;;;;5036168;28;20036;-86
2023/05/13 01:05:11;;;;;;;9.47;7.20;;;16.00;99.90;;;;;;4995101;28;20078;-86
2023/05/13 01:08:10;;;;;;;9.93;7.57;;;16.00;99.90;;;;;;5035637;28;20087;-85
2023/05/13 01:11:00;;;;;;;9.70;7.38;;;16.00;99.90;;;;;;5035569;28;20056;-85
2023/05/13 01:13:30;;;;;;;10.18;7.47;;;16.10;99.90;;;;;;4996175;28;20543;-86
2023/05/13 01:16:09;;;;;;;9.95;7.32;;;16.10;99.90;;;;;;5003652;28;20525;-87
2023/05/13 01:18:39;;;;;;;10.83;7.37;;;16.10;99.90;;;;;;5007338;28;20048;-86
2023/05/13 01:21:06;;;;;;;10.50;7.57;;;16.10;99.90;;;;;;5030631;28;20478;-87
2023/05/13 01:23:32;;;;;;;8.82;6.95;;;16.10;99.90;;;;;;5029318;28;20655;-84
2023/05/13 01:25:58;;;;;;;9.50;7.03;;;16.20;99.90;;;;;;5009789;28;20037;-87
2023/05/13 01:28:23;;;;;;;9.47;6.90;;;16.20;99.90;;;;;;5015991;28;20085;-85
2023/05/13 01:30:49;;;;;;;9.23;6.85;;;16.20;99.90;;;;;;5038665;28;20032;-87
2023/05/13 01:33:16;;;;;;;9.83;7.17;;;16.20;99.90;;;;;;5028250;28;20048;-85
2023/05/13 01:35:44;;;;;;;8.90;6.95;;;16.20;99.90;;;;;;4992787;28;20025;-84
2023/05/13 01:38:11;;;;;;;9.60;6.63;;;16.30;99.90;;;;;;5053427;28;20244;-88
2023/05/13 01:40:37;;;;;;;10.77;7.25;;;16.30;99.90;;;;;;5030889;28;20390;-84
2023/05/13 01:43:03;;;;;;;9.40;7.77;;;16.30;99.90;;;;;;5013970;28;20035;-87
2023/05/13 01:45:29;;;;;;;9.63;7.03;;;16.20;99.90;;;;;;5036869;28;20021;-87
2023/05/13 01:47:55;;;;;;;9.60;7.05;;;16.30;99.90;;;;;;5028109;28;20068;-86
2023/05/13 01:50:21;;;;;;;9.25;6.65;;;16.30;99.90;;;;;;5011127;28;20593;-85
2023/05/13 01:52:47;;;;;;;8.57;6.43;;;16.30;99.90;;;;;;5043729;28;20039;-84
2023/05/13 01:55:13;;;;;;;8.63;6.20;;;16.30;99.90;;;;;;5008946;28;20368;-85
2023/05/13 01:57:39;;;;;;;8.77;6.60;;;16.20;99.90;;;;;;5031453;28;20550;-84
2023/05/13 02:00:07;;;;;;;7.72;6.38;;;16.20;99.90;;;;;;5024581;28;20056;-86
2023/05/13 02:02:32;;;;;;;8.10;6.30;;;16.20;99.90;;;;;;5009848;28;20509;-84
2023/05/13 02:04:58;;;;;;;8.40;6.65;;;16.20;99.90;;;;;;5032436;28;20029;-87
2023/05/13 02:07:24;;;;;;;8.38;6.25;;;16.20;99.90;;;;;;5024645;28;20033;-85
2023/05/13 02:09:50;;;;;;;7.57;6.10;;;16.20;99.90;;;;;;5033931;28;20383;-85
2023/05/13 02:12:16;;;;;;;8.30;6.20;;;16.20;99.90;;;;;;5024168;28;20033;-87
2023/05/13 02:14:41;;;;;;;8.47;6.37;;;16.20;99.90;;;;;;5018900;28;20037;-84
2023/05/13 02:17:07;;;;;;;8.80;6.15;;;16.10;99.90;;;;;;5010491;28;20037;-85
2023/05/13 02:19:33;;;;;;;8.52;5.78;;;16.20;99.90;;;;;;5048004;28;20025;-85
2023/05/13 02:21:59;;;;;;;7.20;5.80;;;16.20;99.90;;;;;;5014776;28;20029;-84
2023/05/13 02:24:25;;;;;;;7.35;5.50;;;16.10;99.90;;;;;;5033530;28;20029;-86
2023/05/13 02:26:51;;;;;;;7.63;5.60;;;16.10;99.90;;;;;;5029650;28;20018;-84
2023/05/13 02:29:17;;;;;;;7.35;5.70;;;16.10;99.90;;;;;;5016265;28;20029;-86
2023/05/13 02:31:43;;;;;;;8.40;6.00;;;16.00;99.90;;;;;;5022455;28;20029;-85
2023/05/13 02:34:09;;;;;;;7.35;5.78;;;16.00;99.90;;;;;;5033487;28;20040;-86
2023/05/13 02:36:35;;;;;;;8.20;6.40;;;16.00;99.90;;;;;;5048715;28;20648;-84
2023/05/13 02:39:01;;;;;;;7.45;6.13;;;16.00;99.90;;;;;;5012294;28;20449;-84
2023/05/13 02:41:27;;;;;;;7.93;5.85;;;16.00;99.90;;;;;;5028922;28;20124;-86
2023/05/13 02:43:53;;;;;;;7.83;6.07;;;15.90;99.90;;;;;;5016864;28;20021;-84
2023/05/13 02:46:19;;;;;;;8.10;6.03;;;15.90;99.90;;;;;;5021035;28;20132;-85
2023/05/13 02:48:45;;;;;;;8.07;6.22;;;15.90;99.90;;;;;;5043663;28;20072;-84
2023/05/13 02:51:11;;;;;;;6.78;5.53;;;15.90;99.90;;;;;;5043398;28;20039;-85
2023/05/13 02:53:37;;;;;;;7.80;5.60;;;15.90;99.90;;;;;;4990205;28;20213;-84
2023/05/13 02:56:03;;;;;;;6.97;5.45;;;15.90;99.90;;;;;;5032862;28;20029;-84
2023/05/13 02:58:29;;;;;;;6.82;5.70;;;15.80;99.90;;;;;;5021427;28;20266;-84
2023/05/13 03:00:54;;;;;;;7.27;5.87;;;15.80;99.90;;;;;;5042183;28;20044;-84
2023/05/13 03:03:20;;;;;;;7.10;5.88;;;15.80;99.90;;;;;;5026153;28;20048;-86
2023/05/13 03:05:46;;;;;;;6.90;6.03;;;15.80;99.90;;;;;;5035365;28;20306;-86
2023/05/13 03:08:11;;;;;;;8.05;6.20;;;15.80;99.90;;;;;;5037277;28;20064;-86
2023/05/13 03:10:37;;;;;;;7.73;5.63;;;15.70;99.90;;;;;;5020198;28;20210;-84
2023/05/13 03:13:03;;;;;;;7.60;5.80;;;15.70;99.90;;;;;;5020265;28;20024;-83
2023/05/13 03:15:29;;;;;;;7.30;5.70;;;15.70;99.90;;;;;;5023423;28;20993;-85
2023/05/13 03:17:56;;;;;;;7.10;5.93;;;15.70;99.90;;;;;;5028987;28;20420;-84
2023/05/13 03:20:22;;;;;;;7.70;5.65;;;15.60;99.90;;;;;;5040924;28;20029;-86
2023/05/13 03:22:48;;;;;;;5.97;4.93;;;15.60;99.90;;;;;;5032911;28;20581;-83
2023/05/13 03:25:14;;;;;;;7.18;5.88;;;15.50;99.90;;;;;;5014006;28;20040;-86
2023/05/13 03:27:40;;;;;;;7.27;5.67;;;15.50;99.90;;;;;;5051430;28;20025;-85
2023/05/13 03:30:06;;;;;;;7.10;5.72;;;15.50;99.90;;;;;;5042663;28;20325;-83
2023/05/13 03:32:32;;;;;;;7.70;5.88;;;15.50;99.90;;;;;;5004727;28;20091;-85
2023/05/13 03:34:59;;;;;;;7.10;5.30;;;15.40;99.90;;;;;;5042073;28;20025;-84
2023/05/13 03:37:25;;;;;;;7.13;5.65;;;15.30;99.90;;;;;;5031805;28;20027;-86
2023/05/13 03:39:51;;;;;;;6.22;5.07;;;15.30;99.90;;;;;;5039945;28;20016;-85
2023/05/13 03:42:19;;;;;;;6.67;5.03;;;15.20;99.90;;;;;;5014653;28;20064;-86
2023/05/13 03:44:45;;;;;;;6.93;5.45;;;15.20;99.90;;;;;;5015785;28;20219;-84
2023/05/13 03:47:10;;;;;;;7.05;5.38;;;15.10;99.90;;;;;;5046300;28;20313;-86
2023/05/13 03:49:36;;;;;;;6.97;5.13;;;15.00;99.90;;;;;;5032217;28;20029;-84
2023/05/13 03:52:02;;;;;;;6.20;5.28;;;15.00;99.90;;;;;;5042459;28;20028;-84
2023/05/13 03:54:28;;;;;;;6.60;5.05;;;14.90;99.90;;;;;;5035226;28;20036;-85
2023/05/13 03:56:54;;;;;;;6.83;5.03;;;14.90;99.90;;;;;;4998009;28;20052;-85
2023/05/13 03:59:20;;;;;;;6.30;4.93;;;14.80;99.90;;;;;;5055159;28;20029;-86
2023/05/13 04:01:45;;;;;;;8.43;5.38;;;14.80;99.90;;;;;;5026643;28;20700;-84
2023/05/13 04:04:11;;;;;;;7.17;5.00;;;14.80;99.90;;;;;;5044472;28;20321;-86
2023/05/13 04:06:37;;;;;;;7.07;5.18;;;14.70;99.90;;;;;;5024933;28;20784;-85
2023/05/13 04:09:03;;;;;;;6.80;5.07;;;14.70;99.90;;;;;;5013273;28;20549;-84
2023/05/13 04:11:30;;;;;;;6.27;4.73;;;14.60;99.90;;;;;;4987956;28;20574;-85
2023/05/13 04:13:56;;;;;;;6.07;4.70;;;14.60;99.90;;;;;;5049955;28;20044;-84
2023/05/13 04:16:22;;;;;;;7.40;4.80;;;14.50;99.90;;;;;;5024242;28;20441;-86
2023/05/13 04:18:48;;;;;;;6.03;4.50;;;14.50;99.90;;;;;;5003144;28;20021;-85
2023/05/13 04:21:14;;;;;;;6.20;4.73;;;14.50;99.90;;;;;;5006817;28;20021;-86
2023/05/13 04:23:40;;;;;;;6.07;4.72;;;14.40;99.90;;;;;;5031016;28;20025;-84
2023/05/13 04:26:07;;;;;;;6.25;5.22;;;14.40;99.90;;;;;;5031653;28;20025;-84
2023/05/13 04:28:33;;;;;;;7.25;4.72;;;14.40;99.90;;;;;;5002131;28;20043;-84
2023/05/13 04:30:59;;;;;;;6.40;5.10;;;14.40;99.90;;;;;;5030479;28;20028;-83
2023/05/13 04:33:26;;;;;;;5.60;4.60;;;14.30;99.90;;;;;;5005484;28;20025;-86
2023/05/13 04:35:52;;;;;;;6.93;4.88;;;14.30;99.90;;;;;;5013712;28;20021;-84
2023/05/13 04:38:17;;;;;;;6.05;4.68;;;14.30;99.90;;;;;;5021735;28;20029;-85
2023/05/13 04:40:44;;;;;;;6.72;5.10;;;14.30;99.90;;;;;;5034277;28;20039;-84
2023/05/13 04:43:11;;;;;;;6.90;5.20;;;14.30;99.90;;;;;;5047543;28;20107;-86
2023/05/13 04:45:37;;;;;;;7.03;4.95;;;14.20;99.90;;;;;;5012781;28;20272;-84
2023/05/13 04:48:03;;;;;;;5.97;4.47;;;14.30;99.90;;;;;;5002375;28;20036;-84
2023/05/13 04:50:30;;;;;;;6.97;5.30;;;14.20;99.90;;;;;;5020272;28;20510;-84
2023/05/13 04:52:57;;;;;;;6.43;4.73;;;14.30;99.90;;;;;;5027876;28;20133;-84
2023/05/13 04:55:23;;;;;;;7.35;5.03;;;14.30;99.90;;;;;;5009770;28;20692;-86
2023/05/13 04:57:48;;;;;;;6.38;4.88;;;14.30;99.90;;;;;;5031647;28;20406;-84
2023/05/13 05:00:15;;;;;;;7.00;5.07;;;14.30;99.90;;;;;;5006489;28;20029;-86
2023/05/13 05:02:40;;;;;;;6.15;4.93;;;14.40;99.90;;;;;;5018112;28;20326;-84
2023/05/13 05:05:07;;;;;;;5.93;4.75;;;14.40;99.90;;;;;;5016122;28;20063;-86
2023/05/13 05:07:33;;;;;;;7.47;5.07;;;14.50;99.90;;;;;;5002561;28;20246;-85
2023/05/13 05:09:59;;;;;;;6.57;5.10;;;14.60;99.90;;;;;;5061758;28;20035;-85
2023/05/13 05:12:25;;;;;;;6.23;4.60;;;14.60;99.90;;;;;;5028480;28;20642;-85
2023/05/13 05:14:51;;;;;;;6.20;4.90;;;14.60;99.90;;;;;;5007324;28;20029;-85
2023/05/13 05:17:16;;;;;;;6.35;5.18;;;14.70;99.90;;;;;;5025893;28;20145;-85
2023/05/13 05:19:42;;;;;;;5.93;4.90;;;14.70;99.90;;;;;;5039063;28;20115;-83
2023/05/13 05:22:08;;;;;;;6.07;4.78;;;14.80;99.90;;;;;;5056274;28;20067;-85
2023/05/13 05:24:34;;;;;;;6.82;5.80;;;14.80;99.90;;;;;;5022550;28;20573;-85
2023/05/13 05:27:01;;;;;;;6.37;5.17;;;14.80;99.90;;;;;;5028796;28;20033;-85
2023/05/13 05:29:27;;;;;;;6.10;5.07;;;14.90;99.90;;;;;;5045666;28;20241;-84
2023/05/13 05:31:52;;;;;;;7.78;5.60;;;15.00;99.90;;;;;;5031987;28;20477;-85
2023/05/13 05:34:18;;;;;;;6.70;5.00;;;15.00;99.90;;;;;;5026103;28;20028;-85
2023/05/13 05:36:44;;;;;;;7.53;5.32;;;15.10;99.90;;;;;;5038722;28;20017;-84
2023/05/13 05:39:10;;;;;;;7.70;5.70;;;15.10;99.90;;;;;;5005511;28;20140;-85
2023/05/13 05:41:35;;;;;;;6.80;5.37;;;15.20;99.90;;;;;;5040571;28;20498;-85
2023/05/13 05:44:01;;;;;;;7.20;5.57;;;15.20;99.90;;;;;;5038530;28;20021;-87
2023/05/13 05:46:27;;;;;;;6.77;5.27;;;15.30;99.90;;;;;;4994399;28;20246;-84
2023/05/13 05:48:53;;;;;;;7.25;5.38;;;15.30;99.90;;;;;;5051553;28;20032;-84
2023/05/13 05:51:19;;;;;;;6.82;5.72;;;15.40;99.90;;;;;;5004733;28;20017;-85
2023/05/13 05:53:45;;;;;;;7.87;6.27;;;15.40;99.90;;;;;;5023630;28;20041;-84
2023/05/13 05:56:11;;;;;;;7.43;5.22;;;15.50;99.90;;;;;;5037128;28;20025;-85
2023/05/13 05:58:37;;;;;;;7.32;5.68;;;15.50;99.90;;;;;;5040207;28;20501;-85
2023/05/13 06:01:03;;;;;;;6.72;5.28;;;15.50;99.90;;;;;;5018946;28;20108;-86
2023/05/13 06:03:29;;;;;;;6.53;5.33;;;15.60;99.90;;;;;;5011503;28;20117;-84
2023/05/13 06:05:55;;;;;;;6.68;5.07;;;15.60;99.90;;;;;;5040552;28;20069;-84
2023/05/13 06:08:26;;;;;;;6.75;5.15;;;15.70;99.90;;;;;;5018047;28;20390;-84
2023/05/13 06:10:52;;;;;;;5.78;4.70;;;15.70;99.90;;;;;;5034399;28;20021;-85
2023/05/13 06:13:18;;;;;;;7.67;5.67;;;15.70;99.90;;;;;;5033981;28;20649;-85
2023/05/13 06:15:44;;;;;;;6.70;5.60;;;15.80;99.90;;;;;;5034273;28;20817;-85
2023/05/13 06:18:10;;;;;;;7.85;5.68;;;15.80;99.90;;;;;;5014637;28;20418;-85
2023/05/13 06:20:36;;;;;;;6.70;5.23;;;15.80;99.90;;;;;;5020184;28;20312;-84
2023/05/13 06:23:01;;;;;;;7.43;5.65;;;15.90;99.90;;;;;;5022506;28;20482;-85
2023/05/13 06:25:27;;;;;;;7.00;5.67;;;15.90;99.90;;;;;;5014395;28;20263;-85
2023/05/13 06:27:53;;;;;;;6.82;5.80;;;16.00;99.90;;;;;;5032651;28;20036;-86
2023/05/13 06:30:20;;;;;;;8.32;6.13;;;16.10;99.90;;;;;;5024363;28;20028;-85
2023/05/13 06:32:46;;;;;;;7.77;6.27;;;16.10;99.90;;;;;;5022895;28;20033;-85
2023/05/13 06:35:11;;;;;;;8.65;6.18;;;16.30;99.90;;;;;;5011125;28;20029;-86
2023/05/13 06:37:37;;;;;;;10.20;6.60;;;16.30;99.90;;;;;;5022522;28;20222;-83
2023/05/13 06:40:04;;;;;;;8.45;6.65;;;16.50;99.90;;;;;;5051033;28;20039;-86
2023/05/13 06:42:30;;;;;;;9.00;7.23;;;16.60;99.90;;;;;;5025215;28;20075;-87
2023/05/13 06:44:55;;;;;;;7.90;6.63;;;16.70;99.90;;;;;;5072123;28;20025;-84
2023/05/13 06:47:21;;;;;;;8.33;6.77;;;16.80;99.90;;;;;;5033513;28;20529;-83
2023/05/13 06:49:47;;;;;;;8.00;6.55;;;16.90;99.90;;;;;;5011367;28;20446;-86
2023/05/13 06:52:12;;;;;;;8.47;6.70;;;17.00;99.90;;;;;;5025984;28;20044;-86
2023/05/13 06:54:39;;;;;;;8.98;6.68;;;17.20;99.90;;;;;;5033725;28;20037;-85
2023/05/13 06:57:06;;;;;;;8.98;6.80;;;17.30;99.90;;;;;;5039145;28;20032;-87
2023/05/13 06:59:32;;;;;;;8.10;6.63;;;17.40;99.90;;;;;;5031622;28;20241;-83
2023/05/13 07:01:58;;;;;;;8.93;7.00;;;17.50;99.90;;;;;;5037147;28;20064;-87
2023/05/13 07:04:23;;;;;;;8.40;6.60;;;17.70;99.90;;;;;;5007766;28;20531;-86
2023/05/13 07:06:50;;;;;;;8.05;6.55;;;17.80;99.90;;;;;;5034018;28;20036;-85
2023/05/13 07:09:16;;;;;;;8.40;6.17;;;18.00;99.90;;;;;;5037469;28;20466;-83
2023/05/13 07:11:42;;;;;;;8.02;6.45;;;18.20;99.90;;;;;;5023341;28;20040;-84
2023/05/13 07:14:08;;;;;;;7.95;6.03;;;18.30;99.90;;;;;;5040019;28;20050;-86
2023/05/13 07:16:34;;;;;;;8.40;6.25;;;18.40;99.90;;;;;;5029525;28;20032;-85
2023/05/13 07:19:00;;;;;;;8.13;6.50;;;18.60;99.90;;;;;;5035508;28;20079;-85
2023/05/13 07:21:26;;;;;;;8.68;6.13;;;18.70;99.90;;;;;;4988746;28;20556;-86
2023/05/13 07:23:52;;;;;;;7.07;6.25;;;18.90;99.90;;;;;;5005167;28;20025;-87
2023/05/13 07:26:17;;;;;;;9.87;7.00;;;19.00;99.90;;;;;;5000129;28;20510;-86
2023/05/13 07:28:43;;;;;;;7.88;6.50;;;19.10;99.90;;;;;;5031512;28;20070;-84
2023/05/13 07:31:09;;;;;;;8.17;6.63;;;19.20;99.90;;;;;;5034319;28;20590;-87
2023/05/13 07:33:35;;;;;;;9.23;6.38;;;19.30;99.90;;;;;;5028927;28;20038;-84
2023/05/13 07:36:01;;;;;;;8.90;5.93;;;19.40;99.90;;;;;;5026040;28;20072;-85
2023/05/13 07:38:27;;;;;;;7.80;6.13;;;19.40;99.90;;;;;;5068139;28;20032;-88
2023/05/13 07:40:53;;;;;;;9.02;6.50;;;19.50;99.90;;;;;;5010311;28;20219;-85
2023/05/13 07:43:22;;;;;;;8.13;6.65;;;19.60;99.90;;;;;;5024470;28;20091;-88
2023/05/13 07:45:50;;;;;;;7.90;7.00;;;19.70;99.90;;;;;;5034268;28;20025;-86
2023/05/13 07:48:16;;;;;;;8.43;7.10;;;19.70;99.90;;;;;;5041016;28;20394;-87
2023/05/13 07:50:45;;;;;;;10.55;7.38;;;19.80;99.90;;;;;;5051663;28;20584;-86
2023/05/13 07:53:11;;;;;;;8.82;6.93;;;19.80;99.90;;;;;;5002538;28;20552;-86
2023/05/13 07:55:38;;;;;;;9.00;6.80;;;19.90;99.90;;;;;;5023473;28;20033;-84
2023/05/13 07:58:05;;;;;;;7.33;6.07;;;20.00;99.90;;;;;;5023018;28;20021;-82
2023/05/13 08:00:31;;;;;;;7.13;5.83;;;20.10;99.90;;;;;;5041943;28;20279;-81
2023/05/13 08:02:56;;;;;;;6.90;6.10;;;20.30;99.90;;;;;;5019934;28;20043;-82
2023/05/13 08:05:22;;;;;;;6.83;5.60;;;20.40;99.90;;;;;;5036095;28;20044;-81
2023/05/13 08:07:48;;;;;;;8.40;5.55;;;20.70;99.90;;;;;;5005667;28;20151;-85
2023/05/13 08:10:14;;;;;;;6.53;5.72;;;20.80;99.90;;;;;;5024346;28;20106;-84
2023/05/13 08:12:40;;;;;;;6.25;5.35;;;21.10;99.90;;;;;;5014452;28;20624;-85
2023/05/13 08:15:06;;;;;;;6.93;5.43;;;21.50;99.90;;;;;;5020881;28;20037;-82
2023/05/13 08:17:33;;;;;;;7.30;5.63;;;21.80;99.90;;;;;;5019852;28;20183;-85
2023/05/13 08:20:00;;;;;;;6.53;5.03;;;22.20;99.90;;;;;;5034082;28;20033;-83
2023/05/13 08:22:26;;;;;;;5.60;5.00;;;22.60;99.90;;;;;;5015551;28;20406;-82
2023/05/13 08:24:52;;;;;;;5.90;5.30;;;23.10;99.90;;;;;;5027700;28;20021;-85
2023/05/13 08:27:18;;;;;;;5.03;4.53;;;23.50;99.90;;;;;;5036955;28;20064;-86
2023/05/13 08:29:44;;;;;;;4.90;4.40;;;24.00;99.90;;;;;;5010999;28;20748;-84
2023/05/13 08:32:11;;;;;;;5.47;4.37;;;24.40;99.90;;;;;;5031328;28;20119;-86
2023/05/13 08:34:37;;;;;;;5.47;4.25;;;24.80;99.90;;;;;;5029039;28;20399;-84
2023/05/13 08:37:03;;;;;;;4.68;4.22;;;25.20;99.90;;;;;;5045012;28;20036;-87
2023/05/13 08:39:29;;;;;;;4.27;3.87;;;25.60;99.90;;;;;;4985107;28;20512;-88
2023/05/13 08:41:56;;;;;;;5.45;4.95;;;26.00;99.90;;;;;;5019148;28;20025;-86
2023/05/13 08:44:27;;;;;;;5.90;4.65;;;26.40;99.90;;;;;;5017711;28;20082;-85
2023/05/13 08:47:06;;;;;;;5.15;4.65;;;26.60;99.90;;;;;;5034517;28;20486;-87
2023/05/13 08:49:33;;;;;;;5.65;4.55;;;26.80;99.90;;;;;;5046761;28;20048;-86
2023/05/13 08:51:59;;;;;;;4.97;4.47;;;27.00;99.90;;;;;;5010479;28;20373;-86
2023/05/13 08:54:27;;;;;;;4.82;4.38;;;27.20;99.90;;;;;;5021568;28;20024;-84
2023/05/13 08:56:52;;;;;;;4.95;4.15;;;27.50;99.90;;;;;;5019121;28;20025;-86
2023/05/13 08:59:18;;;;;;;4.75;4.20;;;27.70;99.90;;;;;;5002898;28;20036;-84
2023/05/13 09:01:45;;;;;;;4.57;3.87;;;27.90;99.90;;;;;;5007036;28;20091;-87
2023/05/13 09:04:10;;;;;;;5.53;4.05;;;28.20;99.90;;;;;;5035335;28;20035;-85
2023/05/13 09:06:36;;;;;;;4.68;4.25;;;28.50;99.90;;;;;;5030418;28;20635;-90
2023/05/13 09:09:03;;;;;;;5.23;4.73;;;28.80;99.90;;;;;;5029807;28;20025;-87
2023/05/13 09:11:29;;;;;;;5.53;5.03;;;29.00;99.90;;;;;;5004852;28;20502;-86
2023/05/13 09:14:00;;;;;;;5.10;4.60;;;29.10;99.90;;;;;;5016753;28;20306;-84
2023/05/13 09:16:31;;;;;;;5.50;4.95;;;29.20;99.90;;;;;;5021126;28;20154;-87
2023/05/13 09:18:59;;;;;;;4.67;4.27;;;29.30;99.90;;;;;;5034467;28;20052;-85
2023/05/13 09:21:34;;;;;;;6.65;4.32;;;29.30;99.90;;;;;;5039233;28;20029;-84
2023/05/13 09:24:23;;;;;;;5.15;4.65;;;29.40;99.90;;;;;;5022033;28;20392;-88
2023/05/13 09:26:50;;;;;;;5.20;4.57;;;29.60;99.90;;;;;;4985961;28;20052;-83
2023/05/13 09:29:24;;;;;;;4.90;4.28;;;29.70;99.90;;;;;;5023388;28;20021;-83
2023/05/13 09:31:56;;;;;;;4.77;4.27;;;29.90;99.90;;;;;;5028443;28;20387;-84
2023/05/13 09:34:29;;;;;;;4.90;4.40;;;30.10;99.90;;;;;;5031948;28;20025;-83
2023/05/13 09:37:01;;;;;;;4.82;4.32;;;30.20;99.90;;;;;;5013152;28;20231;-83
2023/05/13 09:39:27;;;;;;;4.40;4.00;;;30.40;99.90;;;;;;5033842;28;20114;-83
2023/05/13 09:41:53;;;;;;;4.90;4.32;;;30.60;99.90;;;;;;4995670;28;20032;-86
2023/05/13 09:44:20;;;;;;;5.03;4.53;;;30.90;99.90;;;;;;5025115;28;20390;-87
2023/05/13 09:46:46;;;;;;;6.07;4.75;;;31.10;99.90;;;;;;5016443;28;20390;-87
2023/05/13 09:49:14;;;;;;;5.13;4.63;;;31.30;99.90;;;;;;5019810;28;20021;-86
2023/05/13 09:51:42;;;;;;;5.20;4.70;;;31.50;99.90;;;;;;5030724;28;20534;-85
2023/05/13 09:54:08;;;;;;;4.60;4.10;;;31.60;99.90;;;;;;5040922;28;20484;-86
2023/05/13 09:56:35;;;;;;;6.53;4.45;;;31.60;99.90;;;;;;5004661;28;20036;-86
2023/05/13 09:59:02;;;;;;;5.13;4.63;;;31.70;99.90;;;;;;5034539;28;20036;-86
2023/05/13 10:01:28;;;;;;;5.05;4.57;;;31.80;99.90;;;;;;5017152;28;20053;-89
2023/05/13 10:03:58;;;;;;;4.77;4.37;;;31.90;99.90;;;;;;5017852;28;20029;-85
2023/05/13 10:06:29;;;;;;;4.63;4.22;;;32.00;99.90;;;;;;5051589;28;20041;-87
2023/05/13 10:08:58;;;;;;;4.90;4.50;;;32.10;99.90;;;;;;5019480;28;20673;-88
2023/05/13 10:11:26;;;;;;;4.32;3.92;;;32.30;99.90;;;;;;4991615;28;21689;-87
2023/05/13 10:13:58;;;;;;;5.30;4.40;;;32.50;99.90;;;;;;5026753;28;20359;-88
2023/05/13 10:16:26;;;;;;;7.13;4.70;;;32.50;99.90;;;;;;5024399;28;20040;-89
2023/05/13 10:18:52;;;;;;;5.25;4.75;;;32.60;99.60;;;;;;5012196;28;20209;-90
2023/05/13 10:21:18;;;;;;;4.80;4.40;;;32.50;99.40;;;;;;5008656;28;20114;-86
2023/05/13 10:23:46;;;;;;;5.18;4.68;;;32.40;99.90;;;;;;5025178;28;20021;-86
2023/05/13 10:26:12;;;;;;;5.22;4.72;;;32.50;99.90;;;;;;5013233;28;20869;-88
2023/05/13 10:28:38;;;;;;;5.43;4.50;;;32.60;99.90;;;;;;5026946;28;20029;-89
2023/05/13 10:31:04;;;;;;;5.28;4.57;;;32.60;99.70;;;;;;5041902;28;20044;-89
2023/05/13 10:33:30;;;;;;;4.80;4.40;;;32.60;99.90;;;;;;5007518;28;20333;-87
2023/05/13 10:36:18;;;;;;;5.47;4.50;;;32.70;99.90;;;;;;5006462;28;20040;-89
2023/05/13 10:39:11;;;;;;;4.60;4.03;;;32.70;96.70;;;;;;5003859;28;20029;-86
2023/05/13 10:42:07;;;;;;;4.88;4.22;;;32.90;96.10;;;;;;4998253;28;20483;-88
2023/05/13 10:44:34;;;;;;;4.75;4.35;;;33.10;97.20;;;;;;5040015;28;20033;-90
2023/05/13 10:47:01;;;;;;;5.03;4.20;;;33.10;99.50;;;;;;5001025;28;20025;-88
2023/05/13 10:49:34;;;;;;;4.55;4.15;;;33.20;99.00;;;;;;5013973;28;20232;-86
2023/05/13 10:52:06;;;;;;;4.70;4.20;;;33.10;95.50;;;;;;5028094;28;20036;-88
2023/05/13 10:54:40;;;;;;;4.40;4.00;;;33.10;96.50;;;;;;5036304;28;20021;-87
2023/05/13 10:57:07;;;;;;;4.50;4.10;;;33.10;95.60;;;;;;4996042;28;20064;-86
2023/05/13 10:59:35;;;;;;;4.75;4.35;;;33.10;99.80;;;;;;5027062;28;20021;-87
2023/05/13 11:02:20;;;;;;;4.68;4.28;;;33.20;99.90;;;;;;5024659;28;20028;-85
2023/05/13 11:04:59;;;;;;;4.50;4.10;;;33.40;96.20;;;;;;5000438;28;20025;-87
2023/05/13 11:07:28;;;;;;;5.03;4.53;;;33.60;97.50;;;;;;5046354;28;20060;-88
2023/05/13 11:09:54;;;;;;;4.53;4.13;;;33.70;98.10;;;;;;5036482;28;20021;-87
2023/05/13 11:12:20;;;;;;;5.27;4.77;;;33.80;99.30;;;;;;5026741;28;20056;-88
2023/05/13 11:14:46;;;;;;;4.97;4.47;;;33.80;99.10;;;;;;5021416;28;20025;-87
2023/05/13 11:17:12;;;;;;;4.63;4.22;;;33.80;99.30;;;;;;5020719;28;20314;-87
2023/05/13 11:19:47;;;;;;;4.53;4.13;;;33.80;98.40;;;;;;5030504;28;20132;-87
2023/05/13 11:22:15;;;;;;;4.23;3.83;;;33.80;95.50;;;;;;5008904;28;20029;-84
2023/05/13 11:24:45;;;;;;;5.13;3.85;;;33.80;98.20;;;;;;5032445;28;20131;-87
2023/05/13 11:27:16;;;;;;;4.55;4.15;;;33.90;97.40;;;;;;5030530;28;20061;-89
2023/05/13 11:29:49;;;;;;;4.18;3.67;;;33.90;95.00;;;;;;5011919;28;20044;-86
2023/05/13 11:32:35;;;;;;;4.22;3.80;;;33.90;95.60;;;;;;5015104;28;20817;-86
2023/05/13 11:35:03;;;;;;;4.20;3.80;;;33.80;97.50;;;;;;5010712;28;20033;-89
2023/05/13 11:37:31;;;;;;;4.57;4.18;;;33.80;97.30;;;;;;5020016;28;20060;-89
2023/05/13 11:39:57;;;;;;;3.78;3.38;;;33.70;97.20;;;;;;5022797;28;20373;-89
2023/05/13 11:42:24;;;;;;;4.10;3.80;;;33.70;97.50;;;;;;5052520;28;20403;-88
2023/05/13 11:44:52;;;;;;;4.22;3.80;;;33.80;98.10;;;;;;5015241;28;20035;-88
2023/05/13 11:47:26;;;;;;;4.40;4.00;;;33.90;98.10;;;;;;5058656;28;20078;-88
2023/05/13 11:49:52;;;;;;;5.97;4.03;;;34.10;93.20;;;;;;5013256;28;20024;-83
2023/05/13 11:52:19;;;;;;;5.20;3.90;;;34.10;97.00;;;;;;5016796;28;20080;-86
2023/05/13 11:54:53;;;;;;;4.10;3.60;;;34.00;95.30;;;;;;5032111;28;20025;-86
2023/05/13 11:57:19;;;;;;;6.07;4.07;;;34.00;93.80;;;;;;5030254;28;20056;-90
2023/05/13 11:59:50;;;;;;;5.28;3.85;;;33.90;96.60;;;;;;5029495;28;20049;-88
2023/05/13 12:02:23;;;;;;;4.45;4.03;;;33.90;95.70;;;;;;5046495;28;20033;-86
2023/05/13 12:04:51;;;;;;;4.38;3.97;;;33.80;94.00;;;;;;5025598;28;20528;-90
2023/05/13 12:07:24;;;;;;;4.30;3.72;;;33.80;96.00;;;;;;5021225;28;20029;-88
2023/05/13 12:09:51;;;;;;;4.40;4.00;;;33.90;93.50;;;;;;5029409;28;20518;-88
2023/05/13 12:12:18;;;;;;;4.22;3.58;;;34.10;97.30;;;;;;5028459;28;20083;-89
2023/05/13 12:14:48;;;;;;;4.18;3.78;;;34.20;96.40;;;;;;5009723;28;20947;-87
2023/05/13 12:17:18;;;;;;;4.20;3.80;;;34.20;95.40;;;;;;5037814;28;20025;-87
2023/05/13 12:20:07;;;;;;;4.35;3.95;;;34.20;95.30;;;;;;5036757;28;20032;-87
2023/05/13 12:22:34;;;;;;;4.03;3.60;;;34.10;89.10;;;;;;5008165;28;20060;-88
2023/05/13 12:25:20;;;;;;;4.90;3.80;;;33.80;91.90;;;;;;5017160;28;20016;-87
2023/05/13 12:27:51;;;;;;;4.35;3.67;;;33.40;91.10;;;;;;5016069;28;20087;-88
2023/05/13 12:30:18;;;;;;;3.60;3.30;;;32.90;87.20;;;;;;5009819;28;20119;-85
2023/05/13 12:32:44;;;;;;;5.60;3.78;;;32.60;92.20;;;;;;5037539;28;20323;-85
2023/05/13 12:35:15;;;;;;;4.90;3.47;;;32.30;92.70;;;;;;5037656;28;20407;-88
2023/05/13 12:37:41;;;;;;;4.97;3.70;;;32.00;90.50;;;;;;5034887;28;20345;-89
2023/05/13 12:40:11;;;;;;;4.03;3.40;;;31.80;93.30;;;;;;5042902;28;20474;-87
2023/05/13 12:42:37;;;;;;;3.97;3.35;;;31.70;93.20;;;;;;5028519;28;20083;-91
2023/05/13 12:45:04;;;;;;;4.20;3.80;;;31.80;94.80;;;;;;5030973;28;20950;-87
2023/05/13 12:47:47;;;;;;;4.32;3.80;;;31.80;94.40;;;;;;5039988;28;20474;-86